sensor_id;sensor_type;location;lat;lon;timestamp;pressure;altitude;pressure_sealevel;temperature;humidity
72096;BME280;59968;51.084;16.748;2022-10-16T00:02:26;100161.30;;;14.60;83.81
72096;BME280;59968;51.084;16.748;2022-10-16T00:04:54;100154.92;;;14.58;84.22
72096;BME280;59968;51.084;16.748;2022-10-16T00:07:22;100156.70;;;14.57;84.81
72096;BME280;59968;51.084;16.748;2022-10-16T00:09:51;100150.64;;;14.57;85.26
72096;BME280;59968;51.084;16.748;2022-10-16T00:12:19;100151.11;;;14.58;85.40
72096;BME280;59968;51.084;16.748;2022-10-16T00:14:47;100156.77;;;14.61;85.51
72096;BME280;59968;51.084;16.748;2022-10-16T00:17:15;100158.27;;;14.64;85.75
72096;BME280;59968;51.084;16.748;2022-10-16T00:19:43;100159.73;;;14.66;85.75
72096;BME280;59968;51.084;16.748;2022-10-16T00:22:11;100159.18;;;14.69;85.93
72096;BME280;59968;51.084;16.748;2022-10-16T00:24:39;100155.45;;;14.72;85.87
72096;BME280;59968;51.084;16.748;2022-10-16T00:27:07;100148.41;;;14.73;85.78
72096;BME280;59968;51.084;16.748;2022-10-16T00:29:35;100146.58;;;14.76;85.83
72096;BME280;59968;51.084;16.748;2022-10-16T00:32:03;100145.81;;;14.79;85.90
72096;BME280;59968;51.084;16.748;2022-10-16T00:34:31;100151.04;;;14.82;85.94
72096;BME280;59968;51.084;16.748;2022-10-16T00:36:59;100150.52;;;14.85;85.84
72096;BME280;59968;51.084;16.748;2022-10-16T00:39:27;100151.26;;;14.87;85.60
72096;BME280;59968;51.084;16.748;2022-10-16T00:41:55;100146.27;;;14.89;85.72
72096;BME280;59968;51.084;16.748;2022-10-16T00:44:43;100146.30;;;14.91;85.64
72096;BME280;59968;51.084;16.748;2022-10-16T00:50:31;100151.40;;;14.95;85.37
72096;BME280;59968;51.084;16.748;2022-10-16T00:53:01;100154.98;;;14.97;85.49
72096;BME280;59968;51.084;16.748;2022-10-16T00:55:30;100152.20;;;14.98;85.48
72096;BME280;59968;51.084;16.748;2022-10-16T00:57:59;100155.86;;;15.00;85.22
72096;BME280;59968;51.084;16.748;2022-10-16T01:00:27;100151.79;;;15.02;85.12
72096;BME280;59968;51.084;16.748;2022-10-16T01:02:57;100157.38;;;15.04;85.09
72096;BME280;59968;51.084;16.748;2022-10-16T01:05:37;100152.63;;;15.02;85.03
72096;BME280;59968;51.084;16.748;2022-10-16T01:08:17;100147.30;;;15.04;84.83
72096;BME280;59968;51.084;16.748;2022-10-16T01:11:12;100149.88;;;15.10;84.67
72096;BME280;59968;51.084;16.748;2022-10-16T01:13:47;100150.26;;;15.11;84.52
72096;BME280;59968;51.084;16.748;2022-10-16T01:16:28;100150.73;;;15.12;84.29
72096;BME280;59968;51.084;16.748;2022-10-16T01:19:05;100153.14;;;15.12;84.28
72096;BME280;59968;51.084;16.748;2022-10-16T01:21:40;100154.70;;;15.13;84.18
72096;BME280;59968;51.084;16.748;2022-10-16T01:24:39;100154.42;;;15.15;84.32
72096;BME280;59968;51.084;16.748;2022-10-16T01:29:49;100158.34;;;15.20;84.28
72096;BME280;59968;51.084;16.748;2022-10-16T01:32:42;100157.34;;;15.22;84.14
72096;BME280;59968;51.084;16.748;2022-10-16T01:35:35;100153.44;;;15.21;84.13
72096;BME280;59968;51.084;16.748;2022-10-16T01:38:25;100158.30;;;15.25;84.01
72096;BME280;59968;51.084;16.748;2022-10-16T01:41:08;100154.98;;;15.26;83.97
72096;BME280;59968;51.084;16.748;2022-10-16T01:43:42;100161.11;;;15.19;84.25
72096;BME280;59968;51.084;16.748;2022-10-16T01:46:14;100163.75;;;15.17;84.34
72096;BME280;59968;51.084;16.748;2022-10-16T01:48:45;100163.95;;;15.17;84.44
72096;BME280;59968;51.084;16.748;2022-10-16T01:51:14;100164.24;;;15.19;84.29
72096;BME280;59968;51.084;16.748;2022-10-16T01:53:48;100162.08;;;15.19;84.23
72096;BME280;59968;51.084;16.748;2022-10-16T01:56:18;100161.12;;;15.21;84.06
72096;BME280;59968;51.084;16.748;2022-10-16T01:58:56;100165.83;;;15.21;83.96
72096;BME280;59968;51.084;16.748;2022-10-16T02:01:27;100163.87;;;15.20;83.76
72096;BME280;59968;51.084;16.748;2022-10-16T02:04:01;100164.09;;;15.19;83.81
72096;BME280;59968;51.084;16.748;2022-10-16T02:06:31;100169.95;;;15.19;83.73
72096;BME280;59968;51.084;16.748;2022-10-16T02:08:59;100169.65;;;15.18;83.45
72096;BME280;59968;51.084;16.748;2022-10-16T02:11:27;100176.30;;;15.16;83.51
72096;BME280;59968;51.084;16.748;2022-10-16T02:14:00;100177.75;;;15.14;83.52
72096;BME280;59968;51.084;16.748;2022-10-16T02:16:55;100183.02;;;15.12;83.49
72096;BME280;59968;51.084;16.748;2022-10-16T02:19:23;100183.91;;;15.12;83.34
72096;BME280;59968;51.084;16.748;2022-10-16T02:22:01;100184.55;;;15.12;82.95
72096;BME280;59968;51.084;16.748;2022-10-16T02:27:55;100194.40;;;15.03;83.15
72096;BME280;59968;51.084;16.748;2022-10-16T02:33:17;100193.36;;;14.99;83.39
72096;BME280;59968;51.084;16.748;2022-10-16T02:35:47;100202.11;;;14.98;83.32
72096;BME280;59968;51.084;16.748;2022-10-16T02:38:19;100207.18;;;14.99;83.48
72096;BME280;59968;51.084;16.748;2022-10-16T02:40:48;100204.41;;;15.03;83.44
72096;BME280;59968;51.084;16.748;2022-10-16T02:43:16;100200.73;;;15.08;83.58
72096;BME280;59968;51.084;16.748;2022-10-16T02:45:45;100204.53;;;15.13;83.43
72096;BME280;59968;51.084;16.748;2022-10-16T02:48:13;100208.50;;;15.16;83.38
72096;BME280;59968;51.084;16.748;2022-10-16T02:50:41;100205.36;;;15.26;83.22
72096;BME280;59968;51.084;16.748;2022-10-16T02:53:09;100200.35;;;15.22;83.38
72096;BME280;59968;51.084;16.748;2022-10-16T02:55:37;100189.38;;;15.18;83.36
72096;BME280;59968;51.084;16.748;2022-10-16T02:58:05;100200.98;;;15.29;83.42
72096;BME280;59968;51.084;16.748;2022-10-16T03:00:32;100203.38;;;15.30;83.26
72096;BME280;59968;51.084;16.748;2022-10-16T03:03:01;100201.88;;;15.31;83.24
72096;BME280;59968;51.084;16.748;2022-10-16T03:05:29;100201.64;;;15.33;83.16
72096;BME280;59968;51.084;16.748;2022-10-16T03:07:57;100195.65;;;15.36;83.19
72096;BME280;59968;51.084;16.748;2022-10-16T03:10:27;100192.30;;;15.38;82.94
72096;BME280;59968;51.084;16.748;2022-10-16T03:12:55;100193.38;;;15.37;83.12
72096;BME280;59968;51.084;16.748;2022-10-16T03:15:23;100201.51;;;15.37;83.00
72096;BME280;59968;51.084;16.748;2022-10-16T03:17:51;100205.25;;;15.36;82.86
72096;BME280;59968;51.084;16.748;2022-10-16T03:20:19;100208.91;;;15.36;82.82
72096;BME280;59968;51.084;16.748;2022-10-16T03:22:48;100215.39;;;15.36;82.74
72096;BME280;59968;51.084;16.748;2022-10-16T03:25:16;100214.05;;;15.37;82.78
72096;BME280;59968;51.084;16.748;2022-10-16T03:27:44;100217.28;;;15.36;82.81
72096;BME280;59968;51.084;16.748;2022-10-16T03:30:12;100217.73;;;15.33;82.73
72096;BME280;59968;51.084;16.748;2022-10-16T03:32:40;100220.15;;;15.30;82.84
72096;BME280;59968;51.084;16.748;2022-10-16T03:35:08;100224.45;;;15.29;83.03
72096;BME280;59968;51.084;16.748;2022-10-16T03:37:36;100228.56;;;15.28;82.97
72096;BME280;59968;51.084;16.748;2022-10-16T03:40:05;100232.58;;;15.28;83.23
72096;BME280;59968;51.084;16.748;2022-10-16T03:42:33;100234.86;;;15.29;83.23
72096;BME280;59968;51.084;16.748;2022-10-16T03:45:01;100230.78;;;15.31;83.11
72096;BME280;59968;51.084;16.748;2022-10-16T03:47:29;100234.23;;;15.37;82.97
72096;BME280;59968;51.084;16.748;2022-10-16T03:49:57;100231.80;;;15.39;82.78
72096;BME280;59968;51.084;16.748;2022-10-16T03:52:25;100237.68;;;15.41;82.72
72096;BME280;59968;51.084;16.748;2022-10-16T03:54:53;100235.83;;;15.40;82.47
72096;BME280;59968;51.084;16.748;2022-10-16T03:57:21;100238.89;;;15.38;82.31
72096;BME280;59968;51.084;16.748;2022-10-16T03:59:50;100244.75;;;15.35;82.31
72096;BME280;59968;51.084;16.748;2022-10-16T04:02:18;100248.94;;;15.32;82.41
72096;BME280;59968;51.084;16.748;2022-10-16T04:04:46;100249.15;;;15.30;82.29
72096;BME280;59968;51.084;16.748;2022-10-16T04:07:14;100250.73;;;15.27;82.27
72096;BME280;59968;51.084;16.748;2022-10-16T04:09:42;100249.85;;;15.23;82.34
72096;BME280;59968;51.084;16.748;2022-10-16T04:12:10;100247.46;;;15.22;82.46
72096;BME280;59968;51.084;16.748;2022-10-16T04:14:38;100246.77;;;15.23;82.60
72096;BME280;59968;51.084;16.748;2022-10-16T04:17:06;100250.06;;;15.21;82.44
72096;BME280;59968;51.084;16.748;2022-10-16T04:19:34;100256.66;;;15.18;82.47
72096;BME280;59968;51.084;16.748;2022-10-16T04:22:02;100258.73;;;15.16;82.45
72096;BME280;59968;51.084;16.748;2022-10-16T04:24:30;100259.54;;;15.14;82.27
72096;BME280;59968;51.084;16.748;2022-10-16T04:26:58;100255.67;;;15.11;82.40
72096;BME280;59968;51.084;16.748;2022-10-16T04:29:26;100250.34;;;15.07;82.26
72096;BME280;59968;51.084;16.748;2022-10-16T04:31:54;100258.45;;;15.04;82.31
72096;BME280;59968;51.084;16.748;2022-10-16T04:34:22;100267.11;;;15.01;82.43
72096;BME280;59968;51.084;16.748;2022-10-16T04:36:50;100263.66;;;14.98;82.46
72096;BME280;59968;51.084;16.748;2022-10-16T04:39:18;100263.14;;;14.98;82.45
72096;BME280;59968;51.084;16.748;2022-10-16T04:41:46;100264.59;;;14.97;82.53
72096;BME280;59968;51.084;16.748;2022-10-16T04:44:15;100263.41;;;14.95;82.73
72096;BME280;59968;51.084;16.748;2022-10-16T04:46:43;100266.80;;;14.97;82.70
72096;BME280;59968;51.084;16.748;2022-10-16T04:49:12;100263.80;;;14.97;82.70
72096;BME280;59968;51.084;16.748;2022-10-16T04:51:40;100261.18;;;14.97;82.88
72096;BME280;59968;51.084;16.748;2022-10-16T04:54:09;100264.60;;;15.00;82.89
72096;BME280;59968;51.084;16.748;2022-10-16T04:56:37;100267.95;;;15.00;83.07
72096;BME280;59968;51.084;16.748;2022-10-16T04:59:11;100265.81;;;15.00;83.03
72096;BME280;59968;51.084;16.748;2022-10-16T05:01:39;100270.29;;;15.01;82.92
72096;BME280;59968;51.084;16.748;2022-10-16T05:04:07;100271.80;;;14.99;83.07
72096;BME280;59968;51.084;16.748;2022-10-16T05:06:36;100276.31;;;14.96;82.89
72096;BME280;59968;51.084;16.748;2022-10-16T05:09:05;100281.14;;;14.94;82.90
72096;BME280;59968;51.084;16.748;2022-10-16T05:11:33;100276.30;;;14.89;82.99
72096;BME280;59968;51.084;16.748;2022-10-16T05:14:02;100277.59;;;14.88;83.15
72096;BME280;59968;51.084;16.748;2022-10-16T05:16:30;100278.12;;;14.86;83.28
72096;BME280;59968;51.084;16.748;2022-10-16T05:18:59;100277.36;;;14.86;83.21
72096;BME280;59968;51.084;16.748;2022-10-16T05:21:47;100282.04;;;14.81;83.45
72096;BME280;59968;51.084;16.748;2022-10-16T05:24:15;100285.14;;;14.69;83.93
72096;BME280;59968;51.084;16.748;2022-10-16T05:26:43;100290.13;;;14.67;84.03
72096;BME280;59968;51.084;16.748;2022-10-16T05:29:11;100294.70;;;14.68;84.17
72096;BME280;59968;51.084;16.748;2022-10-16T05:31:39;100299.02;;;14.69;84.30
72096;BME280;59968;51.084;16.748;2022-10-16T05:34:07;100298.69;;;14.70;84.34
72096;BME280;59968;51.084;16.748;2022-10-16T05:36:36;100295.92;;;14.70;84.25
72096;BME280;59968;51.084;16.748;2022-10-16T05:39:04;100301.43;;;14.69;84.22
72096;BME280;59968;51.084;16.748;2022-10-16T05:41:32;100299.30;;;14.70;84.48
72096;BME280;59968;51.084;16.748;2022-10-16T05:44:04;100297.59;;;14.68;84.50
72096;BME280;59968;51.084;16.748;2022-10-16T05:46:33;100299.67;;;14.68;84.59
72096;BME280;59968;51.084;16.748;2022-10-16T05:49:02;100305.23;;;14.70;84.59
72096;BME280;59968;51.084;16.748;2022-10-16T05:51:31;100311.21;;;14.72;84.76
72096;BME280;59968;51.084;16.748;2022-10-16T05:53:59;100312.34;;;14.75;84.91
72096;BME280;59968;51.084;16.748;2022-10-16T05:56:27;100314.17;;;14.78;84.96
72096;BME280;59968;51.084;16.748;2022-10-16T05:58:55;100318.43;;;14.81;85.03
72096;BME280;59968;51.084;16.748;2022-10-16T06:01:23;100316.47;;;14.83;84.97
72096;BME280;59968;51.084;16.748;2022-10-16T06:03:53;100314.80;;;14.87;84.98
72096;BME280;59968;51.084;16.748;2022-10-16T06:06:23;100312.80;;;14.90;85.07
72096;BME280;59968;51.084;16.748;2022-10-16T06:08:54;100313.16;;;14.93;85.14
72096;BME280;59968;51.084;16.748;2022-10-16T06:11:27;100316.07;;;14.96;85.13
72096;BME280;59968;51.084;16.748;2022-10-16T06:13:57;100317.58;;;15.02;85.24
72096;BME280;59968;51.084;16.748;2022-10-16T06:16:26;100318.65;;;15.06;85.25
72096;BME280;59968;51.084;16.748;2022-10-16T06:18:55;100323.98;;;15.12;85.17
72096;BME280;59968;51.084;16.748;2022-10-16T06:21:24;100326.70;;;15.13;85.24
72096;BME280;59968;51.084;16.748;2022-10-16T06:23:54;100314.05;;;15.08;85.40
72096;BME280;59968;51.084;16.748;2022-10-16T06:26:25;100333.20;;;15.21;85.29
72096;BME280;59968;51.084;16.748;2022-10-16T06:28:55;100336.14;;;15.24;85.48
72096;BME280;59968;51.084;16.748;2022-10-16T06:31:24;100338.77;;;15.30;85.57
72096;BME280;59968;51.084;16.748;2022-10-16T06:33:59;100345.57;;;15.33;85.56
72096;BME280;59968;51.084;16.748;2022-10-16T06:36:27;100358.14;;;15.38;85.55
72096;BME280;59968;51.084;16.748;2022-10-16T06:38:56;100358.84;;;15.43;85.63
72096;BME280;59968;51.084;16.748;2022-10-16T06:41:24;100367.41;;;15.55;85.26
72096;BME280;59968;51.084;16.748;2022-10-16T06:43:52;100365.93;;;15.58;85.03
72096;BME280;59968;51.084;16.748;2022-10-16T06:46:23;100373.52;;;15.56;85.37
72096;BME280;59968;51.084;16.748;2022-10-16T06:48:52;100376.45;;;15.60;85.39
72096;BME280;59968;51.084;16.748;2022-10-16T06:51:23;100376.25;;;15.66;85.25
72096;BME280;59968;51.084;16.748;2022-10-16T06:53:53;100380.54;;;15.72;85.26
72096;BME280;59968;51.084;16.748;2022-10-16T06:56:34;100383.17;;;15.74;85.39
72096;BME280;59968;51.084;16.748;2022-10-16T06:59:04;100386.84;;;15.78;85.46
72096;BME280;59968;51.084;16.748;2022-10-16T07:01:33;100381.36;;;15.81;85.41
72096;BME280;59968;51.084;16.748;2022-10-16T07:04:01;100381.08;;;15.86;85.36
72096;BME280;59968;51.084;16.748;2022-10-16T07:06:32;100384.58;;;15.89;85.40
72096;BME280;59968;51.084;16.748;2022-10-16T07:09:04;100385.81;;;15.92;85.38
72096;BME280;59968;51.084;16.748;2022-10-16T07:11:33;100381.32;;;15.97;85.25
72096;BME280;59968;51.084;16.748;2022-10-16T07:14:01;100369.73;;;15.94;85.26
72096;BME280;59968;51.084;16.748;2022-10-16T07:16:31;100386.46;;;16.07;85.21
72096;BME280;59968;51.084;16.748;2022-10-16T07:19:01;100394.31;;;16.13;85.09
72096;BME280;59968;51.084;16.748;2022-10-16T07:21:32;100396.98;;;16.19;84.92
72096;BME280;59968;51.084;16.748;2022-10-16T07:24:10;100393.27;;;16.26;85.01
72096;BME280;59968;51.084;16.748;2022-10-16T07:26:41;100397.14;;;16.32;84.92
72096;BME280;59968;51.084;16.748;2022-10-16T07:29:16;100397.66;;;16.38;85.06
72096;BME280;59968;51.084;16.748;2022-10-16T07:31:46;100403.80;;;16.44;84.90
72096;BME280;59968;51.084;16.748;2022-10-16T07:34:18;100407.73;;;16.51;84.98
72096;BME280;59968;51.084;16.748;2022-10-16T07:36:49;100407.30;;;16.59;84.90
72096;BME280;59968;51.084;16.748;2022-10-16T07:39:18;100412.02;;;16.67;84.72
72096;BME280;59968;51.084;16.748;2022-10-16T07:41:47;100407.39;;;16.74;84.57
72096;BME280;59968;51.084;16.748;2022-10-16T07:44:17;100407.27;;;16.81;84.35
72096;BME280;59968;51.084;16.748;2022-10-16T07:46:47;100407.55;;;16.91;84.31
72096;BME280;59968;51.084;16.748;2022-10-16T07:49:17;100401.91;;;16.98;84.01
72096;BME280;59968;51.084;16.748;2022-10-16T07:51:47;100402.91;;;17.05;83.62
72096;BME280;59968;51.084;16.748;2022-10-16T07:54:15;100410.02;;;17.14;83.49
72096;BME280;59968;51.084;16.748;2022-10-16T07:56:44;100412.52;;;17.18;83.58
72096;BME280;59968;51.084;16.748;2022-10-16T07:59:13;100414.50;;;17.24;83.46
72096;BME280;59968;51.084;16.748;2022-10-16T08:01:41;100419.54;;;17.32;83.33
72096;BME280;59968;51.084;16.748;2022-10-16T08:04:12;100423.73;;;17.39;83.18
72096;BME280;59968;51.084;16.748;2022-10-16T08:06:41;100428.95;;;17.48;83.07
72096;BME280;59968;51.084;16.748;2022-10-16T08:09:09;100425.48;;;17.52;82.80
72096;BME280;59968;51.084;16.748;2022-10-16T08:11:38;100431.04;;;17.59;82.39
72096;BME280;59968;51.084;16.748;2022-10-16T08:14:06;100430.52;;;17.63;82.06
72096;BME280;59968;51.084;16.748;2022-10-16T08:16:34;100431.79;;;17.68;81.86
72096;BME280;59968;51.084;16.748;2022-10-16T08:19:03;100430.51;;;17.79;81.53
72096;BME280;59968;51.084;16.748;2022-10-16T08:21:34;100431.38;;;17.88;81.07
72096;BME280;59968;51.084;16.748;2022-10-16T08:24:02;100431.62;;;17.96;80.78
72096;BME280;59968;51.084;16.748;2022-10-16T08:26:32;100434.14;;;18.04;80.56
72096;BME280;59968;51.084;16.748;2022-10-16T08:29:05;100438.13;;;18.13;80.59
72096;BME280;59968;51.084;16.748;2022-10-16T08:31:34;100440.77;;;18.19;80.39
72096;BME280;59968;51.084;16.748;2022-10-16T08:34:03;100444.59;;;18.25;80.38
72096;BME280;59968;51.084;16.748;2022-10-16T08:36:31;100451.94;;;18.33;80.07
72096;BME280;59968;51.084;16.748;2022-10-16T08:39:00;100456.89;;;18.36;80.17
72096;BME280;59968;51.084;16.748;2022-10-16T08:44:30;100465.27;;;18.46;79.99
72096;BME280;59968;51.084;16.748;2022-10-16T08:49:33;100466.02;;;18.58;79.62
72096;BME280;59968;51.084;16.748;2022-10-16T08:52:02;100463.61;;;18.65;79.46
72096;BME280;59968;51.084;16.748;2022-10-16T08:54:41;100461.81;;;18.67;79.18
72096;BME280;59968;51.084;16.748;2022-10-16T08:57:17;100468.46;;;18.68;78.81
72096;BME280;59968;51.084;16.748;2022-10-16T08:59:52;100468.58;;;18.73;78.80
72096;BME280;59968;51.084;16.748;2022-10-16T09:02:38;100466.72;;;18.79;78.54
72096;BME280;59968;51.084;16.748;2022-10-16T09:07:55;100465.92;;;18.94;77.91
72096;BME280;59968;51.084;16.748;2022-10-16T09:13:36;100469.36;;;19.09;77.57
72096;BME280;59968;51.084;16.748;2022-10-16T09:21:44;100474.66;;;19.37;76.38
72096;BME280;59968;51.084;16.748;2022-10-16T09:24:21;100474.55;;;19.43;75.93
72096;BME280;59968;51.084;16.748;2022-10-16T09:26:56;100467.78;;;19.44;75.32
72096;BME280;59968;51.084;16.748;2022-10-16T09:29:24;100471.96;;;19.50;74.96
72096;BME280;59968;51.084;16.748;2022-10-16T09:31:54;100470.66;;;19.54;74.76
72096;BME280;59968;51.084;16.748;2022-10-16T09:34:32;100469.34;;;19.58;74.81
72096;BME280;59968;51.084;16.748;2022-10-16T09:37:09;100465.00;;;19.61;74.69
72096;BME280;59968;51.084;16.748;2022-10-16T09:39:51;100461.52;;;19.67;74.20
72096;BME280;59968;51.084;16.748;2022-10-16T09:42:27;100467.47;;;19.72;74.13
72096;BME280;59968;51.084;16.748;2022-10-16T09:44:58;100468.59;;;19.77;73.99
72096;BME280;59968;51.084;16.748;2022-10-16T09:47:29;100464.45;;;19.87;73.64
72096;BME280;59968;51.084;16.748;2022-10-16T09:50:00;100466.11;;;19.97;73.21
72096;BME280;59968;51.084;16.748;2022-10-16T09:52:30;100467.23;;;20.06;72.56
72096;BME280;59968;51.084;16.748;2022-10-16T09:55:01;100469.89;;;20.13;72.12
72096;BME280;59968;51.084;16.748;2022-10-16T09:57:30;100468.44;;;20.26;72.23
72096;BME280;59968;51.084;16.748;2022-10-16T09:59:59;100455.60;;;20.34;71.32
72096;BME280;59968;51.084;16.748;2022-10-16T10:02:31;100467.64;;;20.47;71.06
72096;BME280;59968;51.084;16.748;2022-10-16T10:05:04;100473.80;;;20.58;71.19
72096;BME280;59968;51.084;16.748;2022-10-16T10:07:38;100471.89;;;20.70;71.24
72096;BME280;59968;51.084;16.748;2022-10-16T10:10:28;100471.05;;;20.82;70.89
72096;BME280;59968;51.084;16.748;2022-10-16T10:12:57;100473.71;;;20.93;70.06
72096;BME280;59968;51.084;16.748;2022-10-16T10:15:28;100476.40;;;21.05;69.29
72096;BME280;59968;51.084;16.748;2022-10-16T10:17:58;100476.77;;;21.16;68.99
72096;BME280;59968;51.084;16.748;2022-10-16T10:20:35;100473.92;;;21.26;68.84
72096;BME280;59968;51.084;16.748;2022-10-16T10:23:24;100476.88;;;21.36;67.64
72096;BME280;59968;51.084;16.748;2022-10-16T10:26:04;100480.47;;;21.44;67.22
72096;BME280;59968;51.084;16.748;2022-10-16T10:37:25;100469.14;;;21.70;66.22
72096;BME280;59968;51.084;16.748;2022-10-16T10:43:29;100464.23;;;21.92;65.44
72096;BME280;59968;51.084;16.748;2022-10-16T10:46:04;100458.89;;;22.03;65.02
72096;BME280;59968;51.084;16.748;2022-10-16T10:51:13;100460.82;;;22.14;64.88
72096;BME280;59968;51.084;16.748;2022-10-16T10:54:23;100460.37;;;22.23;64.92
72096;BME280;59968;51.084;16.748;2022-10-16T11:05:45;100449.02;;;22.22;64.51
72096;BME280;59968;51.084;16.748;2022-10-16T11:08:23;100444.73;;;22.29;64.21
72096;BME280;59968;51.084;16.748;2022-10-16T11:11:05;100456.11;;;22.34;63.23
72096;BME280;59968;51.084;16.748;2022-10-16T11:13:55;100453.24;;;22.35;62.83
72096;BME280;59968;51.084;16.748;2022-10-16T11:16:39;100452.77;;;22.36;63.08
72096;BME280;59968;51.084;16.748;2022-10-16T11:25:16;100454.23;;;22.48;62.80
72096;BME280;59968;51.084;16.748;2022-10-16T11:30:49;100462.16;;;22.55;61.93
72096;BME280;59968;51.084;16.748;2022-10-16T11:36:40;100459.90;;;22.62;62.05
72096;BME280;59968;51.084;16.748;2022-10-16T11:39:29;100455.80;;;22.61;62.29
72096;BME280;59968;51.084;16.748;2022-10-16T11:42:18;100449.13;;;22.63;62.58
72096;BME280;59968;51.084;16.748;2022-10-16T11:44:59;100449.20;;;22.61;62.05
72096;BME280;59968;51.084;16.748;2022-10-16T11:47:36;100446.66;;;22.55;62.37
72096;BME280;59968;51.084;16.748;2022-10-16T11:50:35;100453.73;;;22.48;62.07
72096;BME280;59968;51.084;16.748;2022-10-16T11:55:59;100470.14;;;22.27;62.27
72096;BME280;59968;51.084;16.748;2022-10-16T12:01:35;100468.16;;;22.13;62.30
72096;BME280;59968;51.084;16.748;2022-10-16T12:07:08;100476.30;;;21.99;62.85
72096;BME280;59968;51.084;16.748;2022-10-16T12:09:39;100482.52;;;21.97;62.91
72096;BME280;59968;51.084;16.748;2022-10-16T12:15:26;100478.88;;;21.89;63.31
72096;BME280;59968;51.084;16.748;2022-10-16T12:18:23;100484.97;;;21.80;63.58
72096;BME280;59968;51.084;16.748;2022-10-16T12:20:57;100489.58;;;21.73;63.72
72096;BME280;59968;51.084;16.748;2022-10-16T12:26:31;100494.69;;;21.55;63.87
72096;BME280;59968;51.084;16.748;2022-10-16T12:35:32;100511.62;;;21.21;64.22
72096;BME280;59968;51.084;16.748;2022-10-16T12:40:44;100515.32;;;21.29;64.66
72096;BME280;59968;51.084;16.748;2022-10-16T12:43:27;100521.06;;;21.31;64.64
72096;BME280;59968;51.084;16.748;2022-10-16T12:48:41;100521.83;;;21.34;64.90
72096;BME280;59968;51.084;16.748;2022-10-16T12:51:36;100517.61;;;21.35;64.44
72096;BME280;59968;51.084;16.748;2022-10-16T12:54:20;100520.77;;;21.31;64.63
72096;BME280;59968;51.084;16.748;2022-10-16T13:00:03;100524.39;;;21.27;65.09
72096;BME280;59968;51.084;16.748;2022-10-16T13:03:00;100527.13;;;21.20;65.27
72096;BME280;59968;51.084;16.748;2022-10-16T13:20:53;100539.77;;;21.33;66.06
72096;BME280;59968;51.084;16.748;2022-10-16T13:29:16;100533.70;;;21.40;66.03
72096;BME280;59968;51.084;16.748;2022-10-16T13:31:50;100534.81;;;21.42;66.00
72096;BME280;59968;51.084;16.748;2022-10-16T13:34:22;100537.24;;;21.43;65.83
72096;BME280;59968;51.084;16.748;2022-10-16T13:36:52;100538.70;;;21.46;65.80
72096;BME280;59968;51.084;16.748;2022-10-16T13:39:29;100539.61;;;21.48;65.71
72096;BME280;59968;51.084;16.748;2022-10-16T13:42:10;100538.64;;;21.54;65.32
72096;BME280;59968;51.084;16.748;2022-10-16T13:44:49;100537.85;;;21.63;65.37
72096;BME280;59968;51.084;16.748;2022-10-16T13:47:25;100533.52;;;21.71;65.57
72096;BME280;59968;51.084;16.748;2022-10-16T13:52:33;100541.02;;;21.86;65.09
72096;BME280;59968;51.084;16.748;2022-10-16T13:55:01;100548.85;;;21.89;65.38
72096;BME280;59968;51.084;16.748;2022-10-16T13:57:30;100551.45;;;21.92;64.82
72096;BME280;59968;51.084;16.748;2022-10-16T14:00:03;100556.14;;;21.90;64.36
72096;BME280;59968;51.084;16.748;2022-10-16T14:03:02;100563.16;;;21.84;64.45
72096;BME280;59968;51.084;16.748;2022-10-16T14:05:52;100573.11;;;21.82;64.62
72096;BME280;59968;51.084;16.748;2022-10-16T14:08:26;100575.73;;;21.85;64.76
72096;BME280;59968;51.084;16.748;2022-10-16T14:11:02;100573.14;;;21.84;64.70
72096;BME280;59968;51.084;16.748;2022-10-16T14:13:44;100574.19;;;21.82;64.66
72096;BME280;59968;51.084;16.748;2022-10-16T14:16:23;100568.97;;;21.78;64.27
72096;BME280;59968;51.084;16.748;2022-10-16T14:19:04;100567.41;;;21.71;64.73
72096;BME280;59968;51.084;16.748;2022-10-16T14:21:42;100567.65;;;21.69;64.95
72096;BME280;59968;51.084;16.748;2022-10-16T14:24:31;100565.95;;;21.67;65.13
72096;BME280;59968;51.084;16.748;2022-10-16T14:27:26;100564.81;;;21.62;65.10
72096;BME280;59968;51.084;16.748;2022-10-16T14:32:40;100572.66;;;21.50;65.28
72096;BME280;59968;51.084;16.748;2022-10-16T14:35:36;100574.35;;;21.45;65.53
72096;BME280;59968;51.084;16.748;2022-10-16T14:38:06;100573.78;;;21.38;65.57
72096;BME280;59968;51.084;16.748;2022-10-16T14:40:49;100577.45;;;21.35;65.61
72096;BME280;59968;51.084;16.748;2022-10-16T14:43:31;100582.74;;;21.29;65.85
72096;BME280;59968;51.084;16.748;2022-10-16T14:46:01;100583.20;;;21.26;66.02
72096;BME280;59968;51.084;16.748;2022-10-16T14:48:49;100591.52;;;21.24;66.25
72096;BME280;59968;51.084;16.748;2022-10-16T14:51:44;100587.43;;;21.22;66.65
72096;BME280;59968;51.084;16.748;2022-10-16T14:54:17;100587.90;;;21.20;66.70
72096;BME280;59968;51.084;16.748;2022-10-16T14:56:53;100588.25;;;21.18;66.99
72096;BME280;59968;51.084;16.748;2022-10-16T15:02:28;100591.34;;;21.17;67.26
72096;BME280;59968;51.084;16.748;2022-10-16T15:05:13;100593.20;;;21.12;67.50
72096;BME280;59968;51.084;16.748;2022-10-16T15:07:54;100596.20;;;21.07;67.65
72096;BME280;59968;51.084;16.748;2022-10-16T15:10:28;100592.92;;;21.06;67.68
72096;BME280;59968;51.084;16.748;2022-10-16T15:13:12;100591.59;;;21.04;67.86
72096;BME280;59968;51.084;16.748;2022-10-16T15:15:47;100591.33;;;20.95;67.85